Swansea, California
Current Conditions -  °F | °C
As of 5:56 AM on Friday 31 Oct 2014 (Local Time) from KBIH Reporting Station
Clear Clear  
Wind Chill: 44°   Ceiling: Unl
Heat Index: 47°   Visibility: 10mi
Dew Point: 18°   Wind: 6mph
Humidity: 32%   Direction: NA
Pressure: 29.91"   Gusts: NA
Location:  36.6126°N, 118.162°W
Report Text: KBIH 311256Z AUTO VRB05KT 10SM CLR 08/M08 A2991 RMK AO2 SLP096 T00831078
Loading
Personal Weather Stations






























Interactive Weather Map New forecast layout! Learn more

10-Day Weather Forecast

Advertisements
Track Severe Weather on mobile